Time;durP1;ratioP1;P1;durP2;ratioP2;P2;SDS_P1;SDS_P2;PMS_P1;PMS_P2;Temp;Humidity;BMP_temperature;BMP_pressure;BME280_temperature;BME280_humidity;BME280_pressure;Samples;Min_cycle;Max_cycle;Signal;HPM_P1;HPM_P2
2023/05/12 05:00:52;;;;;;;;;1.00;1.00;;;;;14.59;69.22;-19600.28;5704178;22;46471;-84
2023/05/12 05:03:17;;;;;;;;;1.00;1.00;;;;;14.53;69.55;-19598.91;5003625;28;45577;-83
2023/05/12 05:05:43;;;;;;;;;1.00;1.00;;;;;14.62;69.30;-19601.06;5005109;28;46037;-83
2023/05/12 05:08:08;;;;;;;;;1.00;1.00;;;;;14.62;69.57;-19601.22;5007935;28;45650;-82
2023/05/12 05:10:34;;;;;;;;;3.00;1.33;;;;;14.42;69.23;-19595.97;5005401;28;47030;-81
2023/05/12 05:12:59;;;;;;;;;1.00;1.00;;;;;14.54;69.35;-19599.06;5014043;28;45839;-82
2023/05/12 05:15:24;;;;;;;;;1.00;1.00;;;;;14.62;69.48;-19601.06;5012424;28;51462;-83
2023/05/12 05:17:50;;;;;;;;;3.00;1.00;;;;;14.63;69.56;-19601.47;5005669;28;45676;-84
2023/05/12 05:20:15;;;;;;;;;1.00;1.00;;;;;14.60;69.72;-19600.53;5004834;28;46189;-84
2023/05/12 05:22:41;;;;;;;;;1.00;1.00;;;;;14.52;69.36;-19598.53;5007217;28;45698;-83
2023/05/12 05:25:07;;;;;;;;;1.00;1.00;;;;;14.39;69.48;-19595.03;5008581;28;45351;-82
2023/05/12 05:27:32;;;;;;;;;2.00;2.00;;;;;14.43;69.68;-19596.09;4981084;28;45678;-81
2023/05/12 05:29:57;;;;;;;;;3.00;1.00;;;;;14.63;69.53;-19601.47;4982396;28;47062;-82
2023/05/12 05:32:23;;;;;;;;;1.00;1.00;;;;;14.63;69.77;-19601.34;4992733;28;45593;-82
2023/05/12 05:34:48;;;;;;;;;1.00;1.00;;;;;14.46;69.82;-19597.03;5010211;28;45780;-83
2023/05/12 05:37:14;;;;;;;;;2.00;2.00;;;;;14.64;69.80;-19601.75;5004092;28;45344;-82
2023/05/12 05:39:39;;;;;;;;;1.67;1.00;;;;;14.63;69.68;-19601.47;5002907;28;46284;-82
2023/05/12 05:42:05;;;;;;;;;1.00;1.00;;;;;14.44;69.71;-19596.38;4996879;28;45627;-81
2023/05/12 05:44:30;;;;;;;;;1.67;1.00;;;;;14.57;69.75;-19600.00;5009962;28;45728;-83
2023/05/12 05:46:56;;;;;;;;;1.00;1.00;;;;;14.44;69.53;-19596.50;5005650;28;45602;-88
2023/05/12 05:49:22;;;;;;;;;1.00;1.00;;;;;13.80;69.43;-19579.56;5004032;28;45865;-85
2023/05/12 05:51:47;;;;;;;;;1.00;1.00;;;;;14.25;69.16;-19591.53;5012251;28;45468;-85
2023/05/12 05:54:12;;;;;;;;;2.00;1.00;;;;;14.68;69.29;-19602.69;5012805;28;45482;-86
2023/05/12 05:56:38;;;;;;;;;1.00;1.00;;;;;14.68;69.29;-19602.81;5011636;28;46617;-84
2023/05/12 05:59:04;;;;;;;;;2.00;2.00;;;;;14.68;69.25;-19602.81;5001546;28;47296;-86
2023/05/12 06:01:30;;;;;;;;;0.00;0.00;;;;;14.57;69.30;-19599.88;5001506;28;45612;-83
2023/05/12 06:03:58;;;;;;;;;1.00;1.00;;;;;14.51;69.50;-19598.25;5007819;28;45499;-82
2023/05/12 06:06:24;;;;;;;;;0.67;0.67;;;;;14.70;69.46;-19603.22;5015213;28;45551;-82
2023/05/12 06:08:49;;;;;;;;;2.33;2.33;;;;;14.42;69.10;-19595.84;5014475;28;46095;-82
2023/05/12 06:11:15;;;;;;;;;3.67;2.00;;;;;14.63;68.92;-19601.47;5015708;28;45741;-82
2023/05/12 06:13:40;;;;;;;;;1.00;1.00;;;;;14.47;69.20;-19597.31;5015127;28;45557;-81
2023/05/12 06:16:06;;;;;;;;;2.33;1.00;;;;;14.68;69.44;-19602.81;5015053;28;45603;-80
2023/05/12 06:18:36;;;;;;;;;3.00;1.00;;;;;14.69;69.06;-19603.09;5010687;28;45711;-81
2023/05/12 06:21:02;;;;;;;;;1.00;1.00;;;;;14.64;69.49;-19601.63;4996847;28;45441;-83
2023/05/12 06:23:28;;;;;;;;;1.00;1.00;;;;;14.70;69.26;-19603.34;5013992;28;45482;-85
2023/05/12 06:25:53;;;;;;;;;3.00;3.00;;;;;14.73;69.24;-19604.03;5006162;28;45541;-81
2023/05/12 06:28:18;;;;;;;;;1.00;1.00;;;;;14.74;69.28;-19604.44;5009801;28;47474;-83
2023/05/12 06:30:44;;;;;;;;;1.00;1.00;;;;;14.63;69.42;-19601.47;5011394;28;45530;-81
2023/05/12 06:33:09;;;;;;;;;1.00;1.00;;;;;14.78;68.99;-19605.50;4998555;28;45625;-83
2023/05/12 06:35:35;;;;;;;;;1.00;1.00;;;;;14.72;68.86;-19603.88;5009113;28;45455;-84
2023/05/12 06:38:00;;;;;;;;;2.33;2.33;;;;;14.73;69.17;-19604.03;5002032;28;46125;-82
2023/05/12 06:40:25;;;;;;;;;0.00;0.00;;;;;14.85;68.83;-19607.25;5008910;28;45597;-82
2023/05/12 06:42:51;;;;;;;;;1.00;1.00;;;;;14.88;68.70;-19607.91;5004793;28;50061;-82
2023/05/12 06:45:16;;;;;;;;;1.00;1.00;;;;;14.71;68.67;-19603.63;5003684;28;45539;-82
2023/05/12 06:47:42;;;;;;;;;1.00;1.00;;;;;14.83;68.88;-19606.72;5010705;28;46233;-82
2023/05/12 06:50:07;;;;;;;;;0.00;0.00;;;;;14.96;68.66;-19610.06;4999622;28;46592;-83
2023/05/12 06:52:34;;;;;;;;;0.00;0.00;;;;;14.73;68.71;-19604.03;5006980;28;45447;-81
2023/05/12 06:54:59;;;;;;;;;1.67;0.00;;;;;14.99;68.86;-19611.00;5005884;28;45483;-81
2023/05/12 06:57:24;;;;;;;;;1.00;1.00;;;;;15.02;68.57;-19611.69;5012894;28;47595;-83
2023/05/12 06:59:50;;;;;;;;;1.00;1.00;;;;;15.04;68.86;-19612.22;4998153;28;45461;-83
2023/05/12 07:02:15;;;;;;;;;2.00;2.00;;;;;15.06;68.46;-19612.75;5005964;28;45463;-82
2023/05/12 07:04:41;;;;;;;;;1.67;1.00;;;;;15.08;68.71;-19613.16;5014228;28;45496;-82
2023/05/12 07:07:06;;;;;;;;;1.00;1.00;;;;;15.06;69.19;-19612.63;5006677;28;46429;-82
2023/05/12 07:09:32;;;;;;;;;1.00;1.00;;;;;14.88;68.61;-19607.91;5004545;28;45396;-82
2023/05/12 07:11:58;;;;;;;;;1.00;1.00;;;;;15.00;68.92;-19611.13;4996381;28;45874;-81
2023/05/12 07:14:23;;;;;;;;;0.00;0.00;;;;;15.15;69.07;-19615.03;5012778;28;45557;-80
2023/05/12 07:16:48;;;;;;;;;1.00;1.00;;;;;15.15;69.16;-19615.16;5013784;28;45563;-80
2023/05/12 07:19:14;;;;;;;;;6.33;4.67;;;;;15.33;68.87;-19619.88;5001041;28;45403;-80
2023/05/12 07:21:39;;;;;;;;;2.00;2.00;;;;;15.18;69.39;-19615.97;5004196;28;46387;-80
2023/05/12 07:24:05;;;;;;;;;2.00;1.00;;;;;15.44;69.11;-19622.53;5029396;28;45505;-80
2023/05/12 07:26:31;;;;;;;;;2.00;1.00;;;;;15.52;69.19;-19624.69;5009612;28;46829;-80
2023/05/12 07:28:59;;;;;;;;;1.00;1.00;;;;;15.55;69.39;-19625.50;5013441;28;45504;-80
2023/05/12 07:31:24;;;;;;;;;1.33;1.33;;;;;15.47;69.21;-19623.34;5011789;28;45367;-80
2023/05/12 07:33:50;;;;;;;;;1.00;1.00;;;;;15.50;69.40;-19624.28;4994637;28;45399;-82
2023/05/12 07:36:15;;;;;;;;;1.00;1.00;;;;;15.58;69.16;-19626.44;5013003;28;45401;-83
2023/05/12 07:38:40;;;;;;;;;2.33;1.00;;;;;15.79;69.51;-19631.94;5011402;28;45929;-81
2023/05/12 07:41:06;;;;;;;;;0.00;0.00;;;;;15.85;69.40;-19633.41;5003404;28;46439;-81
2023/05/12 07:43:31;;;;;;;;;2.33;2.00;;;;;15.88;69.63;-19634.22;5011502;28;45414;-81
2023/05/12 07:45:58;;;;;;;;;1.00;1.00;;;;;15.77;69.50;-19631.28;5019512;28;52221;-80
2023/05/12 07:48:23;;;;;;;;;1.00;1.00;;;;;15.96;69.26;-19636.34;5005138;28;45427;-81
2023/05/12 07:50:48;;;;;;;;;1.00;1.00;;;;;16.01;69.63;-19637.72;5004548;28;45485;-81
2023/05/12 07:53:14;;;;;;;;;1.00;1.00;;;;;16.06;69.83;-19638.91;5007799;28;45580;-80
2023/05/12 07:55:40;;;;;;;;;3.33;1.33;;;;;16.12;69.68;-19640.50;5003880;28;55822;-80
2023/05/12 07:58:05;;;;;;;;;2.00;2.00;;;;;16.15;70.05;-19641.31;5006033;28;45835;-81
2023/05/12 08:00:30;;;;;;;;;1.67;1.67;;;;;16.22;69.64;-19643.19;5013529;28;45827;-82
2023/05/12 08:02:55;;;;;;;;;1.33;1.33;;;;;16.27;69.59;-19644.41;5013328;28;45433;-81
2023/05/12 08:05:21;;;;;;;;;2.67;2.67;;;;;16.27;69.55;-19644.41;5014534;28;48591;-82
2023/05/12 08:07:46;;;;;;;;;2.00;1.00;;;;;16.34;69.74;-19646.28;5014806;28;45618;-81
2023/05/12 08:10:12;;;;;;;;;1.67;1.67;;;;;16.36;70.18;-19646.81;5016936;28;45918;-81
2023/05/12 08:12:39;;;;;;;;;4.33;2.00;;;;;16.31;70.35;-19645.34;5016699;28;45434;-81
2023/05/12 08:15:05;;;;;;;;;3.33;2.00;;;;;16.50;70.63;-19650.28;5016986;28;47123;-80
2023/05/12 08:17:30;;;;;;;;;1.67;1.67;;;;;16.55;70.44;-19651.78;5017248;28;45395;-80
2023/05/12 08:19:55;;;;;;;;;1.33;1.33;;;;;16.50;70.41;-19650.28;5017938;28;45506;-81
2023/05/12 08:22:21;;;;;;;;;2.00;1.00;;;;;16.36;70.60;-19646.81;5018036;28;45350;-81
2023/05/12 08:24:46;;;;;;;;;2.00;2.00;;;;;16.60;70.69;-19652.97;5014726;28;46006;-81
2023/05/12 08:27:11;;;;;;;;;1.00;1.00;;;;;16.67;70.83;-19654.84;5016984;28;45641;-81
2023/05/12 08:29:37;;;;;;;;;1.00;1.00;;;;;16.82;70.53;-19658.88;5016442;28;45486;-81
2023/05/12 08:32:02;;;;;;;;;1.00;1.00;;;;;16.82;70.48;-19658.88;5017473;28;45551;-81
2023/05/12 08:34:28;;;;;;;;;2.33;2.00;;;;;16.93;70.98;-19661.56;5016309;28;47167;-81
2023/05/12 08:36:54;;;;;;;;;2.00;2.00;;;;;17.03;70.92;-19664.38;5016927;28;45567;-81
2023/05/12 08:39:20;;;;;;;;;1.00;1.00;;;;;16.98;71.39;-19662.91;5014237;28;45482;-82
2023/05/12 08:42:27;;;;;;;;;2.00;2.00;;;;;17.09;71.44;-19665.84;5017598;28;45597;-82
2023/05/12 08:44:53;;;;;;;;;7.33;5.33;;;;;16.97;72.09;-19662.63;4913472;28;48241;-81
2023/05/12 08:47:19;;;;;;;;;7.33;5.33;;;;;16.90;72.69;-19660.88;4917458;28;45773;-81
2023/05/12 08:49:53;;;;;;;;;5.33;4.33;;;;;17.00;72.93;-19663.56;4909685;28;46504;-81
2023/05/12 08:52:21;;;;;;;;;4.00;2.67;;;;;16.95;72.96;-19662.22;4905400;28;45450;-81
2023/05/12 08:54:47;;;;;;;;;3.00;2.00;;;;;16.78;72.80;-19657.66;4909627;28;47172;-82
2023/05/12 08:57:12;;;;;;;;;5.33;3.33;;;;;16.70;73.47;-19655.66;4916382;28;46035;-81
2023/05/12 08:59:42;;;;;;;;;3.00;3.00;;;;;16.85;74.10;-19659.53;4917276;28;45503;-81
2023/05/12 09:02:09;;;;;;;;;5.33;3.00;;;;;16.67;73.91;-19655.00;4916544;28;45587;-82
2023/05/12 09:04:36;;;;;;;;;5.00;3.00;;;;;16.62;74.05;-19653.50;4918174;28;47339;-82
2023/05/12 09:07:03;;;;;;;;;5.00;3.67;;;;;16.73;74.46;-19656.31;4916725;28;45548;-82
2023/05/12 09:09:31;;;;;;;;;4.00;4.00;;;;;16.70;74.57;-19655.53;4916999;28;45451;-82
2023/05/12 09:11:59;;;;;;;;;4.67;4.00;;;;;16.55;74.82;-19651.78;4907807;28;45603;-82
2023/05/12 09:14:25;;;;;;;;;5.00;4.00;;;;;16.58;74.67;-19652.44;4911293;28;46416;-82
2023/05/12 09:16:54;;;;;;;;;5.67;5.00;;;;;16.60;75.24;-19652.97;4913525;28;45470;-81
2023/05/12 09:19:20;;;;;;;;;5.00;5.00;;;;;16.51;75.03;-19650.56;4919606;28;45552;-82
2023/05/12 09:21:46;;;;;;;;;5.67;5.67;;;;;16.63;75.31;-19653.78;5001840;28;46802;-82
2023/05/12 09:24:16;;;;;;;;;7.33;6.33;;;;;16.50;75.79;-19650.44;5008283;28;46078;-84
2023/05/12 09:26:48;;;;;;;;;6.00;6.00;;;;;16.54;75.84;-19651.50;5010581;28;46405;-83
2023/05/12 09:29:15;;;;;;;;;6.00;5.00;;;;;16.52;76.10;-19650.97;5007540;28;45671;-83
2023/05/12 09:31:51;;;;;;;;;8.33;5.00;;;;;16.43;75.96;-19648.56;5013406;28;45300;-82
2023/05/12 09:34:18;;;;;;;;;6.00;6.00;;;;;16.54;76.29;-19651.38;4998486;28;46248;-81
2023/05/12 09:36:44;;;;;;;;;7.33;4.00;;;;;16.50;77.42;-19650.28;5010207;28;45586;-83
2023/05/12 09:39:10;;;;;;;;;6.00;5.00;;;;;16.52;77.69;-19650.97;5016637;28;45434;-81
2023/05/12 09:41:37;;;;;;;;;7.33;4.67;;;;;16.53;77.40;-19651.09;5013389;28;45529;-82
2023/05/12 09:44:03;;;;;;;;;5.67;5.00;;;;;16.43;77.67;-19648.69;5015277;28;46154;-82
2023/05/12 09:46:28;;;;;;;;;6.00;5.33;;;;;16.58;78.17;-19652.56;5014677;28;45494;-83
2023/05/12 09:48:57;;;;;;;;;4.00;4.00;;;;;16.66;78.16;-19654.72;5011534;28;46010;-82
2023/05/12 09:51:24;;;;;;;;;4.67;4.33;;;;;16.71;78.46;-19655.91;5023943;28;46227;-81
2023/05/12 09:53:50;;;;;;;;;5.00;4.00;;;;;16.78;78.37;-19657.78;4998304;28;48361;-82
2023/05/12 09:56:17;;;;;;;;;1.33;1.33;;;;;16.80;78.74;-19658.22;5014152;28;45454;-83
2023/05/12 09:58:44;;;;;;;;;4.33;3.33;;;;;16.72;78.68;-19656.06;5016252;28;45462;-83
2023/05/12 10:01:14;;;;;;;;;4.00;2.33;;;;;16.88;78.59;-19660.47;5004640;28;45490;-84
2023/05/12 10:03:41;;;;;;;;;4.00;3.00;;;;;16.82;78.96;-19658.88;5009645;28;47308;-84
2023/05/12 10:06:11;;;;;;;;;3.00;3.00;;;;;16.96;78.88;-19662.34;5010504;28;45469;-84
2023/05/12 10:09:02;;;;;;;;;3.00;3.00;;;;;16.86;78.98;-19659.94;5017414;28;45505;-83
2023/05/12 10:11:28;;;;;;;;;3.33;2.00;;;;;16.96;78.73;-19662.34;5007571;28;45371;-83
2023/05/12 10:13:55;;;;;;;;;3.00;1.00;;;;;16.95;78.73;-19662.09;5011578;28;47384;-84
2023/05/12 10:16:21;;;;;;;;;2.33;2.33;;;;;16.95;79.20;-19662.09;5015698;28;45437;-85
2023/05/12 10:18:47;;;;;;;;;3.00;3.00;;;;;16.98;79.11;-19663.03;5015527;28;45508;-83
2023/05/12 10:21:14;;;;;;;;;3.00;2.00;;;;;16.99;78.17;-19663.28;5014889;28;45506;-83
2023/05/12 10:23:40;;;;;;;;;1.33;1.33;;;;;16.81;78.72;-19658.47;5012706;28;47109;-84
2023/05/12 10:26:06;;;;;;;;;2.00;2.00;;;;;16.95;78.51;-19662.09;5013076;28;45489;-84
2023/05/12 10:28:32;;;;;;;;;2.00;2.00;;;;;17.06;78.61;-19665.03;5015590;28;45553;-83
2023/05/12 10:30:58;;;;;;;;;1.33;1.33;;;;;17.07;78.57;-19665.31;5014480;28;45434;-83
2023/05/12 10:33:25;;;;;;;;;2.00;2.00;;;;;16.93;78.39;-19661.69;5015526;28;47132;-84
2023/05/12 10:35:51;;;;;;;;;2.00;1.00;;;;;17.05;78.45;-19664.91;5015026;28;45353;-84
2023/05/12 10:38:18;;;;;;;;;3.00;2.33;;;;;16.50;78.24;-19650.44;4997910;28;45442;-85
2023/05/12 10:40:58;;;;;;;;;3.67;2.00;;;;;16.46;77.77;-19649.38;5013851;28;45488;-85
2023/05/12 10:43:25;;;;;;;;;3.00;1.00;;;;;17.15;78.24;-19667.44;5015316;28;46433;-85
2023/05/12 10:46:17;;;;;;;;;1.00;1.00;;;;;17.20;77.81;-19668.66;5014836;28;45469;-84
2023/05/12 10:48:58;;;;;;;;;1.00;1.00;;;;;16.97;77.95;-19662.63;5015237;28;45593;-84
2023/05/12 10:51:29;;;;;;;;;1.00;1.00;;;;;17.32;77.40;-19671.84;5015058;28;45612;-83
2023/05/12 10:54:01;;;;;;;;;2.00;2.00;;;;;17.32;77.69;-19671.72;5014066;28;46193;-83
2023/05/12 10:56:28;;;;;;;;;1.33;0.67;;;;;17.44;77.02;-19674.94;5015284;28;45471;-83
2023/05/12 10:59:16;;;;;;;;;2.00;2.00;;;;;17.47;77.01;-19675.75;5014518;28;46544;-83
2023/05/12 11:01:59;;;;;;;;;2.67;2.67;;;;;17.42;76.77;-19674.41;5012658;28;45544;-84
2023/05/12 11:04:51;;;;;;;;;2.00;0.00;;;;;17.50;76.37;-19676.53;5015185;28;47103;-84
2023/05/12 11:07:28;;;;;;;;;4.33;2.00;;;;;17.24;76.41;-19669.84;5013509;28;45741;-86
2023/05/12 11:09:56;;;;;;;;;1.00;1.00;;;;;17.04;76.70;-19664.50;5014902;28;45415;-86
2023/05/12 11:12:22;;;;;;;;;2.00;2.00;;;;;17.47;76.47;-19675.75;5014310;28;45423;-86
2023/05/12 11:14:48;;;;;;;;;1.00;1.00;;;;;17.33;76.42;-19672.13;5013729;28;47217;-84
2023/05/12 11:17:14;;;;;;;;;2.00;2.00;;;;;17.49;76.58;-19676.28;5003331;28;45451;-84
2023/05/12 11:19:45;;;;;;;;;1.00;1.00;;;;;17.49;76.49;-19676.41;4995250;28;45464;-81
2023/05/12 11:22:11;;;;;;;;;1.00;1.00;;;;;17.44;76.18;-19674.94;5015365;28;45310;-83
2023/05/12 11:24:38;;;;;;;;;2.00;2.00;;;;;17.49;76.32;-19676.41;5014158;28;46269;-86
2023/05/12 11:27:11;;;;;;;;;3.00;3.00;;;;;17.49;75.92;-19676.28;5015006;28;45494;-85
2023/05/12 11:29:38;;;;;;;;;6.33;6.33;;;;;17.50;76.12;-19676.53;5013955;28;45390;-83
2023/05/12 11:32:04;;;;;;;;;2.00;2.00;;;;;17.50;75.98;-19676.53;5010166;28;45768;-83
2023/05/12 11:34:29;;;;;;;;;2.00;1.00;;;;;17.54;76.00;-19677.47;5014122;28;46353;-83
2023/05/12 11:36:56;;;;;;;;;1.00;1.00;;;;;17.57;75.61;-19678.41;5012581;28;45434;-85
2023/05/12 11:39:24;;;;;;;;;2.00;2.00;;;;;17.55;75.42;-19677.75;5012382;28;45973;-83
2023/05/12 11:41:50;;;;;;;;;3.00;1.00;;;;;17.58;75.93;-19678.53;4998431;28;45550;-84
2023/05/12 11:44:20;;;;;;;;;1.00;1.00;;;;;17.58;75.67;-19678.69;5016927;28;47209;-83
2023/05/12 11:47:10;;;;;;;;;1.00;1.00;;;;;17.55;75.21;-19677.88;5012052;28;46064;-83
2023/05/12 11:49:48;;;;;;;;;1.00;1.00;;;;;17.63;75.23;-19680.03;5016767;28;45397;-82
2023/05/12 11:52:14;;;;;;;;;1.00;1.00;;;;;17.55;75.19;-19677.88;5017629;28;45712;-82
2023/05/12 11:54:47;;;;;;;;;2.00;1.00;;;;;17.62;75.05;-19679.75;5013668;28;46172;-82
2023/05/12 11:57:12;;;;;;;;;3.00;1.33;;;;;17.40;74.97;-19674.00;5016449;28;45458;-85
2023/05/12 11:59:37;;;;;;;;;0.67;0.67;;;;;17.59;75.25;-19678.94;5012301;28;45462;-83
2023/05/12 12:02:03;;;;;;;;;2.33;1.33;;;;;17.56;74.97;-19678.00;5010638;28;45573;-84
2023/05/12 12:04:35;;;;;;;;;1.00;1.00;;;;;17.55;74.50;-19677.88;5016755;28;47197;-83
2023/05/12 12:07:03;;;;;;;;;0.33;0.00;;;;;17.35;74.60;-19672.66;5016151;28;45510;-83
2023/05/12 12:09:39;;;;;;;;;1.00;1.00;;;;;17.48;75.05;-19676.00;5015369;28;45732;-83
2023/05/12 12:12:06;;;;;;;;;1.00;1.00;;;;;17.45;74.47;-19675.34;5011017;28;45588;-83
2023/05/12 12:14:34;;;;;;;;;1.00;0.00;;;;;17.35;74.38;-19672.66;5017456;28;46254;-84
2023/05/12 12:17:00;;;;;;;;;1.00;1.00;;;;;17.34;74.72;-19672.25;5015802;28;45617;-85
2023/05/12 12:19:26;;;;;;;;;1.33;1.33;;;;;17.29;74.25;-19671.06;5009737;28;45449;-85
2023/05/12 12:21:52;;;;;;;;;1.00;1.00;;;;;17.19;74.35;-19668.50;5011159;28;45530;-84
2023/05/12 12:24:17;;;;;;;;;1.00;1.00;;;;;17.13;74.77;-19666.78;5010238;28;47139;-88
2023/05/12 12:27:46;;;;;;;;;1.33;1.33;;;;;16.46;74.88;-19649.50;5016455;28;45515;-89
2023/05/12 12:30:15;;;;;;;;;2.00;2.00;;;;;17.21;74.46;-19668.91;4934079;28;45553;-88
2023/05/12 12:32:42;;;;;;;;;8.33;6.00;;;;;16.86;74.58;-19659.94;4935288;28;45738;-86
2023/05/12 12:35:10;;;;;;;;;13.33;11.67;;;;;16.61;75.29;-19653.38;4935172;28;46596;-85
2023/05/12 12:38:12;;;;;;;;;3.67;3.67;;;;;17.09;74.54;-19665.97;4931414;28;45812;-85
2023/05/12 12:47:23;;;;;;;;;2.00;2.00;;;;;17.03;74.78;-19664.22;4936353;28;45694;-85
2023/05/12 12:49:48;;;;;;;;;2.67;2.00;;;;;17.03;75.05;-19664.22;4935733;28;45508;-86
2023/05/12 12:52:24;;;;;;;;;;;;;;;;;;;;;
2023/05/12 12:55:20;;;;;;;;;5.00;3.00;;;;;15.99;74.98;-19637.03;4934743;28;61775;-85
2023/05/12 12:58:03;;;;;;;;;2.67;2.33;;;;;16.27;75.08;-19644.41;4936001;28;47190;-85
2023/05/12 13:00:29;;;;;;;;;4.00;2.00;;;;;17.06;75.37;-19665.16;4930609;28;45429;-85
2023/05/12 13:03:29;;;;;;;;;2.00;2.00;;;;;17.09;75.59;-19665.97;4935370;28;45486;-85
2023/05/12 13:06:23;;;;;;;;;1.67;1.67;;;;;17.12;75.45;-19666.50;4969675;28;45505;-84
2023/05/12 13:08:49;;;;;;;;;2.00;2.00;;;;;16.79;75.42;-19658.06;5016548;28;46135;-85
2023/05/12 13:11:17;;;;;;;;;2.00;2.00;;;;;16.75;74.66;-19657.00;5016348;28;45616;-85
2023/05/12 13:13:46;;;;;;;;;3.00;3.00;;;;;16.80;74.92;-19658.22;5016391;28;45516;-88
2023/05/12 13:16:11;;;;;;;;;3.67;1.33;;;;;17.09;74.87;-19665.97;5004852;28;45978;-84
2023/05/12 13:18:37;;;;;;;;;1.00;1.00;;;;;16.82;74.88;-19658.75;5003344;28;46204;-84
2023/05/12 13:21:03;;;;;;;;;1.00;1.00;;;;;17.09;75.16;-19665.84;5009607;28;45426;-84
2023/05/12 13:23:28;;;;;;;;;0.00;0.00;;;;;16.47;74.85;-19649.63;5008772;28;45531;-84
2023/05/12 13:25:54;;;;;;;;;1.67;1.33;;;;;17.02;74.82;-19664.09;5006923;28;45633;-84
2023/05/12 13:28:31;;;;;;;;;0.00;0.00;;;;;17.03;74.50;-19664.38;5014252;28;45494;-84
2023/05/12 13:30:57;;;;;;;;;0.00;0.00;;;;;16.88;75.01;-19660.47;5013107;28;45678;-84
2023/05/12 13:33:28;;;;;;;;;1.00;1.00;;;;;16.66;74.46;-19654.72;4997846;28;45558;-85
2023/05/12 13:35:54;;;;;;;;;3.33;3.00;;;;;16.73;74.57;-19656.31;5012879;28;45689;-85
2023/05/12 13:38:19;;;;;;;;;1.00;1.00;;;;;16.76;74.37;-19657.25;4995272;28;48041;-85
2023/05/12 13:40:44;;;;;;;;;1.00;1.00;;;;;16.66;74.95;-19654.59;5013006;28;45966;-85
2023/05/12 13:43:11;;;;;;;;;1.00;1.00;;;;;17.05;74.52;-19664.78;5015420;28;45467;-85
2023/05/12 13:45:36;;;;;;;;;1.33;0.00;;;;;17.33;74.43;-19672.13;5011801;28;45852;-85
2023/05/12 13:48:02;;;;;;;;;1.00;1.00;;;;;16.90;74.54;-19660.75;5013073;28;47255;-84
2023/05/12 13:50:29;;;;;;;;;2.00;1.00;;;;;17.10;74.65;-19666.09;5000981;28;45566;-84
2023/05/12 13:53:04;;;;;;;;;1.00;1.00;;;;;16.45;74.29;-19649.22;5011610;28;45485;-84
2023/05/12 13:55:32;;;;;;;;;1.00;1.00;;;;;17.33;74.42;-19672.13;5013898;28;45823;-84
2023/05/12 13:58:00;;;;;;;;;0.33;0.33;;;;;16.59;74.68;-19652.72;5007772;28;46232;-84
2023/05/12 14:00:28;;;;;;;;;0.00;0.00;;;;;16.67;75.02;-19655.00;5011292;28;45818;-84
2023/05/12 14:02:54;;;;;;;;;1.00;1.00;;;;;17.30;75.02;-19671.31;5008151;28;45404;-85
2023/05/12 14:05:19;;;;;;;;;20.33;18.00;;;;;16.62;75.41;-19653.50;5010303;28;45775;-84
2023/05/12 14:07:47;;;;;;;;;2.00;2.00;;;;;16.50;75.38;-19650.44;5012226;28;45985;-84
2023/05/12 14:10:13;;;;;;;;;1.00;1.00;;;;;17.23;75.07;-19669.59;5013848;28;45500;-84
2023/05/12 14:12:41;;;;;;;;;1.00;1.00;;;;;16.65;74.90;-19654.44;4995796;28;45589;-85
2023/05/12 14:15:07;;;;;;;;;1.00;1.00;;;;;16.50;74.98;-19650.44;5009079;28;45524;-85
2023/05/12 14:17:33;;;;;;;;;1.00;1.00;;;;;17.06;75.05;-19665.16;5013376;28;47201;-85
2023/05/12 14:19:58;;;;;;;;;0.67;0.67;;;;;17.17;74.97;-19667.84;5011830;28;45549;-85
2023/05/12 14:22:23;;;;;;;;;1.00;1.00;;;;;16.35;75.34;-19646.53;5014536;28;45565;-85
2023/05/12 14:24:49;;;;;;;;;0.33;0.33;;;;;16.57;75.72;-19652.31;5015838;28;45529;-85
2023/05/12 14:27:14;;;;;;;;;2.33;1.00;;;;;16.79;75.69;-19657.94;5008210;28;45978;-85
2023/05/12 14:29:39;;;;;;;;;2.00;0.00;;;;;17.11;75.72;-19666.38;4987850;28;45527;-84
2023/05/12 14:32:06;;;;;;;;;1.67;1.67;;;;;17.00;75.55;-19663.56;5011982;28;45557;-85
2023/05/12 14:34:31;;;;;;;;;3.33;3.00;;;;;17.06;75.44;-19665.03;4993490;28;45567;-85
2023/05/12 14:36:57;;;;;;;;;1.00;1.00;;;;;16.71;75.27;-19655.91;5008118;28;45963;-85
2023/05/12 14:39:28;;;;;;;;;0.33;0.33;;;;;16.38;75.16;-19647.34;4995279;28;45506;-85
2023/05/12 14:41:57;;;;;;;;;2.00;2.00;;;;;16.59;75.08;-19652.84;5009013;28;45393;-85
2023/05/12 14:44:58;;;;;;;;;8.33;7.00;;;;;17.02;75.44;-19664.09;5012700;28;45495;-85
2023/05/12 14:47:37;;;;;;;;;1.00;1.00;;;;;16.36;75.40;-19646.81;4891567;29;46777;-86
2023/05/12 14:50:17;;;;;;;;;2.67;2.00;;;;;16.86;75.51;-19659.81;4895950;29;45624;-85
2023/05/12 14:52:45;;;;;;;;;1.00;1.00;;;;;16.28;74.80;-19644.53;4893589;29;45557;-85
2023/05/12 14:55:12;;;;;;;;;1.67;1.67;;;;;16.09;74.88;-19639.72;4894044;29;45740;-85
2023/05/12 14:57:46;;;;;;;;;2.67;1.00;;;;;16.72;75.47;-19656.06;4895926;29;47063;-88
2023/05/12 15:00:17;;;;;;;;;1.00;1.00;;;;;16.95;74.97;-19662.22;4877257;29;46163;-86
2023/05/12 15:02:44;;;;;;;;;0.67;0.67;;;;;17.14;75.46;-19667.03;4886224;29;45614;-85
2023/05/12 15:05:12;;;;;;;;;3.00;1.00;;;;;17.14;75.63;-19667.19;4893822;29;45643;-84
2023/05/12 15:07:38;;;;;;;;;1.00;1.00;;;;;16.73;75.56;-19656.31;4888643;29;46072;-83
2023/05/12 15:10:04;;;;;;;;;1.00;1.00;;;;;16.81;75.78;-19658.47;4893035;29;45515;-86
2023/05/12 15:12:30;;;;;;;;;1.00;1.00;;;;;17.31;75.57;-19671.59;4884936;29;45900;-84
2023/05/12 15:14:59;;;;;;;;;5.00;2.00;;;;;16.96;75.11;-19662.50;4883734;29;45411;-85
2023/05/12 15:17:26;;;;;;;;;7.33;7.33;;;;;17.41;75.42;-19674.28;4895387;29;47043;-84
2023/05/12 15:19:51;;;;;;;;;7.33;5.67;;;;;17.05;75.55;-19664.78;4884998;29;45628;-84
2023/05/12 15:22:57;;;;;;;;;1.33;1.00;;;;;17.46;75.60;-19675.59;4891652;29;45748;-85
2023/05/12 15:25:22;;;;;;;;;2.00;2.00;;;;;16.73;75.16;-19656.47;5014998;28;45367;-85
2023/05/12 15:27:47;;;;;;;;;0.67;0.67;;;;;16.74;75.23;-19656.72;5002693;28;47153;-84
2023/05/12 15:30:13;;;;;;;;;1.00;1.00;;;;;16.99;75.56;-19663.16;5009631;28;45431;-84
2023/05/12 15:32:41;;;;;;;;;1.67;1.67;;;;;16.79;75.09;-19658.06;5012207;28;45407;-83
2023/05/12 15:35:07;;;;;;;;;2.00;2.00;;;;;17.32;75.39;-19671.72;5009580;28;45556;-85
2023/05/12 15:37:33;;;;;;;;;0.33;0.33;;;;;16.91;74.86;-19661.16;5015512;28;45517;-84
2023/05/12 15:39:58;;;;;;;;;1.00;1.00;;;;;17.31;74.88;-19671.59;5004057;28;45477;-84
2023/05/12 15:42:24;;;;;;;;;3.00;3.00;;;;;17.23;74.46;-19669.44;5008699;28;45865;-83
2023/05/12 15:44:49;;;;;;;;;3.00;1.67;;;;;16.80;74.43;-19658.34;5011183;28;45520;-84
2023/05/12 15:47:15;;;;;;;;;3.67;3.67;;;;;17.27;74.44;-19670.53;5017295;28;46795;-84
2023/05/12 15:49:40;;;;;;;;;2.00;0.00;;;;;17.18;73.87;-19668.13;5016434;28;45743;-83
2023/05/12 15:52:08;;;;;;;;;1.00;1.00;;;;;17.32;73.76;-19671.72;5012229;28;45480;-84
2023/05/12 15:54:33;;;;;;;;;1.00;0.00;;;;;17.30;73.89;-19671.47;5010693;28;45428;-84
2023/05/12 15:57:18;;;;;;;;;0.00;0.00;;;;;17.29;73.58;-19671.19;5016599;28;47006;-88
2023/05/12 15:59:46;;;;;;;;;0.00;0.00;;;;;17.29;73.31;-19671.19;4993330;28;45524;-88
2023/05/12 16:02:24;;;;;;;;;1.00;1.00;;;;;16.71;73.46;-19655.78;4996037;28;45576;-88
2023/05/12 16:07:55;;;;;;;;;0.00;0.00;;;;;16.38;73.46;-19647.22;5011720;28;45443;-86
2023/05/12 16:10:20;;;;;;;;;0.00;0.00;;;;;17.26;73.61;-19670.25;5014715;28;45538;-85
2023/05/12 16:12:46;;;;;;;;;0.67;0.00;;;;;16.73;73.40;-19656.47;5005820;28;46041;-83
2023/05/12 16:15:12;;;;;;;;;0.00;0.00;;;;;16.94;73.45;-19661.81;5006391;28;45480;-83
2023/05/12 16:17:37;;;;;;;;;1.00;1.00;;;;;17.20;73.21;-19668.78;5006631;28;45796;-84
2023/05/12 16:20:03;;;;;;;;;1.00;0.00;;;;;17.05;73.69;-19664.78;5011037;28;45654;-83
2023/05/12 16:22:29;;;;;;;;;1.00;1.00;;;;;17.16;73.34;-19667.56;5007470;28;45532;-84
2023/05/12 16:24:55;;;;;;;;;0.00;0.00;;;;;16.65;73.28;-19654.44;5017160;28;45474;-85
2023/05/12 16:27:20;;;;;;;;;0.00;0.00;;;;;17.25;73.42;-19670.13;5003438;28;45498;-86
2023/05/12 16:29:48;;;;;;;;;0.67;0.67;;;;;16.46;72.96;-19649.50;5013157;28;45772;-85
2023/05/12 16:32:25;;;;;;;;;0.00;0.00;;;;;16.66;73.32;-19654.72;5005117;28;45484;-85
2023/05/12 16:34:55;;;;;;;;;1.00;1.00;;;;;16.81;72.80;-19658.47;5017702;28;45397;-84
2023/05/12 16:37:21;;;;;;;;;1.00;1.00;;;;;17.24;73.38;-19669.72;5010790;28;45502;-83
2023/05/12 16:40:13;;;;;;;;;0.33;0.33;;;;;17.05;73.09;-19664.91;5012450;28;45570;-88
2023/05/12 16:43:27;;;;;;;;;1.00;1.00;;;;;16.31;73.13;-19645.47;4972435;28;45529;-87